createdAt,value
2018-07-20T00:05:18.959Z,7.85
2018-07-20T00:11:13.983Z,8.75
2018-07-20T00:17:09.021Z,8.26
2018-07-20T00:23:04.059Z,8.02
2018-07-20T00:28:59.065Z,7.22
2018-07-20T00:34:54.066Z,6.45
2018-07-20T00:40:49.030Z,6.81
2018-07-20T00:46:44.029Z,6.81
2018-07-20T00:52:39.014Z,6.78
2018-07-20T00:58:34.041Z,6.66
2018-07-20T01:04:29.077Z,7.41
2018-07-20T01:10:24.050Z,8.39
2018-07-20T01:16:19.083Z,7.15
2018-07-20T01:22:14.051Z,6.95
2018-07-20T01:28:09.099Z,6.67
2018-07-20T01:34:04.098Z,7.15
2018-07-20T01:39:59.054Z,26.7
2018-07-20T01:45:54.070Z,20.63
2018-07-20T01:51:49.039Z,7.66
2018-07-20T01:57:44.037Z,7.3
2018-07-20T02:03:39.060Z,43.87
2018-07-20T02:09:34.044Z,20.67
2018-07-20T02:15:29.055Z,39.86
2018-07-20T02:21:24.099Z,16.35
2018-07-20T02:27:19.096Z,11.2
2018-07-20T02:33:14.099Z,10.61
2018-07-20T02:39:09.082Z,8.86
2018-07-20T02:45:04.094Z,8.35
2018-07-20T02:50:59.113Z,8.17
2018-07-20T02:56:54.104Z,8.11
2018-07-20T03:02:49.094Z,7.47
2018-07-20T03:08:44.111Z,7.67
2018-07-20T03:14:39.168Z,19.97
2018-07-20T03:20:34.132Z,14.31
2018-07-20T03:26:29.159Z,10.89
2018-07-20T03:32:24.190Z,11
2018-07-20T03:38:19.169Z,9.8
2018-07-20T03:44:14.145Z,9.56
2018-07-20T03:50:09.126Z,8.86
2018-07-20T03:56:04.170Z,9.24
2018-07-20T04:01:59.180Z,11.13
2018-07-20T04:07:54.147Z,10.75
2018-07-20T04:13:49.144Z,11.54
2018-07-20T04:19:44.149Z,11.97
2018-07-20T04:25:39.193Z,9.79
2018-07-20T04:31:34.159Z,9.41
2018-07-20T04:37:29.152Z,8.93
2018-07-20T04:43:24.172Z,9.72
2018-07-20T04:49:19.169Z,10.1
2018-07-20T04:55:14.198Z,10.46
2018-07-20T05:01:09.194Z,10.45
2018-07-20T05:07:04.232Z,11.25
2018-07-20T05:12:59.222Z,11.07
2018-07-20T05:18:54.185Z,10.78
2018-07-20T05:24:49.205Z,10.4
2018-07-20T05:30:44.179Z,11.16
2018-07-20T05:36:39.184Z,9.98
2018-07-20T05:42:34.229Z,10.83
2018-07-20T05:48:29.194Z,10.3
2018-07-20T05:54:24.243Z,10.48
2018-07-20T06:00:19.200Z,11.21
2018-07-20T06:06:14.206Z,13.69
2018-07-20T06:12:09.185Z,13.81
2018-07-20T06:18:04.189Z,12.51
2018-07-20T06:23:59.227Z,9.96
2018-07-20T06:29:54.212Z,9.6
2018-07-20T06:35:49.277Z,7.57
2018-07-20T06:41:44.218Z,8.1
2018-07-20T06:47:39.241Z,8.79
2018-07-20T06:53:34.233Z,8.04
2018-07-20T06:59:29.274Z,8.5
2018-07-20T07:05:24.303Z,9.84
2018-07-20T07:11:19.236Z,10.55
2018-07-20T07:17:14.277Z,10.33
2018-07-20T07:23:09.236Z,9.35
2018-07-20T07:29:04.254Z,9.63
2018-07-20T07:34:59.251Z,8.3
2018-07-20T07:40:54.249Z,8.17
2018-07-20T07:46:49.285Z,7.71
2018-07-20T07:52:44.258Z,9.49
2018-07-20T07:58:39.287Z,10.3
2018-07-20T08:04:34.348Z,10.7
2018-07-20T08:10:29.279Z,9.41
2018-07-20T08:16:24.300Z,8.01
2018-07-20T08:22:19.293Z,9.8
2018-07-20T08:28:14.295Z,8.21
2018-07-20T08:34:09.299Z,11.11
2018-07-20T08:40:04.337Z,8.93
2018-07-20T08:45:59.309Z,8.2
2018-07-20T08:51:54.354Z,8.62
2018-07-20T08:57:49.320Z,9.38
2018-07-20T09:03:44.314Z,9.33
2018-07-20T09:09:39.292Z,10.1
2018-07-20T09:15:34.302Z,9.66
2018-07-20T09:21:29.322Z,7.54
2018-07-20T09:27:24.370Z,8.62
2018-07-20T09:33:19.368Z,8.64
2018-07-20T09:39:14.442Z,7.93
2018-07-20T09:45:09.340Z,8.54
2018-07-20T09:51:04.371Z,9.53
2018-07-20T09:56:59.371Z,8.97
2018-07-20T10:02:54.588Z,8.73
2018-07-20T10:08:49.357Z,8.3
2018-07-20T10:14:44.341Z,10.02
2018-07-20T10:20:39.363Z,7.39
2018-07-20T10:26:34.412Z,8.75
2018-07-20T10:32:29.368Z,10.19
2018-07-20T10:38:24.409Z,10.25
2018-07-20T10:44:19.459Z,9.11
2018-07-20T10:50:14.380Z,7.06
2018-07-20T10:56:09.392Z,9.77
2018-07-20T11:02:04.365Z,8.56
2018-07-20T11:07:59.452Z,9.73
2018-07-20T11:13:54.364Z,9.09
2018-07-20T11:19:49.410Z,8.19
2018-07-20T11:25:44.408Z,8.95
2018-07-20T11:31:39.381Z,7.05
2018-07-20T11:37:34.398Z,7.46
2018-07-20T11:43:29.422Z,9.15
2018-07-20T11:49:24.444Z,7.36
2018-07-20T11:55:19.415Z,8.45
2018-07-20T12:01:14.488Z,9.62
2018-07-20T12:07:09.462Z,7.28
2018-07-20T12:13:04.460Z,8.95
2018-07-20T12:18:59.486Z,8.78
2018-07-20T12:24:54.509Z,8.82
2018-07-20T12:30:49.423Z,7.3
2018-07-20T12:36:44.457Z,8.38
2018-07-20T12:42:39.503Z,7.63
2018-07-20T12:48:34.438Z,7.33
2018-07-20T12:54:29.438Z,7.81
2018-07-20T13:00:24.435Z,7.19
2018-07-20T13:06:19.481Z,8.99
2018-07-20T13:12:14.466Z,9.31
2018-07-20T13:18:09.597Z,6.22
2018-07-20T13:24:04.463Z,6.91
2018-07-20T13:29:59.479Z,4.36
2018-07-20T13:35:54.463Z,9.88
2018-07-20T13:41:49.477Z,8.04
2018-07-20T13:47:44.494Z,7.58
2018-07-20T13:53:39.492Z,6.86
2018-07-20T13:59:34.501Z,8.32
2018-07-20T14:05:29.543Z,6.47
2018-07-20T14:11:24.582Z,6.06
2018-07-20T14:17:19.556Z,6.09
2018-07-20T14:23:14.485Z,4.7
2018-07-20T14:29:09.495Z,4.54
2018-07-20T14:35:04.515Z,6.23
2018-07-20T14:40:59.506Z,5.67
2018-07-20T14:46:54.546Z,5.6
2018-07-20T14:52:49.533Z,5.32
2018-07-20T14:58:44.544Z,5.72
2018-07-20T15:04:39.544Z,5.8
2018-07-20T15:10:34.596Z,4.97
2018-07-20T15:16:29.539Z,4.77
2018-07-20T15:22:24.558Z,4.93
2018-07-20T15:28:19.554Z,5.32
2018-07-20T15:34:14.566Z,5.39
2018-07-20T15:40:09.549Z,5.03
2018-07-20T15:46:06.113Z,4.22
2018-07-20T15:57:54.560Z,4.36
2018-07-20T16:03:49.564Z,3.53
2018-07-20T16:09:44.599Z,3.44
2018-07-20T16:15:39.555Z,3.84
2018-07-20T16:21:34.588Z,3.24
2018-07-20T16:27:29.568Z,3.64
2018-07-20T16:33:24.572Z,3.03
2018-07-20T16:39:19.587Z,3.63
2018-07-20T16:45:14.594Z,3.19
2018-07-20T16:51:09.597Z,4.84
2018-07-20T16:57:04.583Z,5.13
2018-07-20T17:02:59.607Z,4.27
2018-07-20T17:08:54.603Z,2.9
2018-07-20T17:14:50.505Z,5.28
2018-07-20T17:20:44.606Z,3.82
2018-07-20T17:26:39.624Z,4.03
2018-07-20T17:32:34.631Z,4.3
2018-07-20T17:38:29.611Z,3.93
2018-07-20T17:44:24.615Z,3.33
2018-07-20T17:50:19.620Z,3.52
2018-07-20T17:56:14.623Z,3.49
2018-07-20T18:02:09.612Z,3.66
2018-07-20T18:08:04.633Z,4.38
2018-07-20T18:13:59.640Z,3.25
2018-07-20T18:19:54.668Z,3.13
2018-07-20T18:25:49.635Z,6.16
2018-07-20T18:31:44.660Z,7.01
2018-07-20T18:37:39.661Z,6.03
2018-07-20T18:43:34.688Z,6.3
2018-07-20T18:49:29.714Z,4.24
2018-07-20T18:55:24.744Z,5.45
2018-07-20T19:01:19.676Z,4.93
2018-07-20T19:07:14.704Z,3.37
2018-07-20T19:13:09.681Z,4.03
2018-07-20T19:19:04.715Z,3.4
2018-07-20T19:24:59.680Z,3.6
2018-07-20T19:30:54.703Z,4.2
2018-07-20T19:36:49.686Z,3.56
2018-07-20T19:42:44.682Z,3.49
2018-07-20T19:48:39.692Z,3.8
2018-07-20T19:54:34.705Z,3.77
2018-07-20T20:00:29.731Z,3.59
2018-07-20T20:06:24.730Z,3.46
2018-07-20T20:12:19.722Z,3.5
2018-07-20T20:18:14.703Z,3.53
2018-07-20T20:24:09.746Z,3.68
2018-07-20T20:30:04.763Z,3.21
2018-07-20T20:35:59.808Z,3.56
2018-07-20T20:41:54.756Z,3.49
2018-07-20T20:47:49.762Z,3.87
2018-07-20T20:53:44.812Z,3.63
2018-07-20T20:59:39.762Z,3.72
2018-07-20T21:05:34.741Z,3.54
2018-07-20T21:11:29.748Z,3.81
2018-07-20T21:17:24.753Z,3.9
2018-07-20T21:23:19.783Z,4.18
2018-07-20T21:29:14.772Z,3.63
2018-07-20T21:35:09.818Z,3.52
2018-07-20T21:41:04.759Z,3.72
2018-07-20T21:46:59.757Z,3.75
2018-07-20T21:52:54.774Z,3.83
2018-07-20T21:58:49.760Z,3.78
2018-07-20T22:04:44.762Z,3.72
2018-07-20T22:10:39.791Z,3.83
2018-07-20T22:16:34.774Z,3.69
2018-07-20T22:22:29.776Z,4.11
2018-07-20T22:28:24.812Z,4.06
2018-07-20T22:34:19.790Z,4.48
2018-07-20T22:40:14.794Z,4.23
2018-07-20T22:46:09.850Z,4.19
2018-07-20T22:52:04.789Z,4.13
2018-07-20T22:57:59.801Z,4.39
2018-07-20T23:03:54.805Z,4.66
2018-07-20T23:09:49.824Z,4.2
2018-07-20T23:15:44.828Z,4.45
2018-07-20T23:21:39.829Z,3.73
2018-07-20T23:27:34.854Z,4.31
2018-07-20T23:33:29.897Z,3.72
2018-07-20T23:39:24.833Z,3.96
2018-07-20T23:45:19.869Z,3.57
2018-07-20T23:51:14.820Z,3.55
2018-07-20T23:57:09.839Z,4.07
